Cape Saint Claire, Maryland
Current Conditions -  °F | °C
As of 7:54 PM on Saturday 25 Oct 2014 (Local Time) from KNAK Reporting Station
Clear Clear  
Wind Chill: 62°   Ceiling: Unl
Heat Index: 62°   Visibility: 10mi
Dew Point: 38°   Wind: 0mph
Humidity: 41%   Direction: NA
Pressure: 29.73"   Gusts: NA
Location:  38.9915°N, 76.5325°W
Report Text: KNAK 252354Z AUTO 00000KT 10SM CLR 17/03 A2973 RMK AO2 SLP070 T01670033 10217 20167 55010
Loading
Personal Weather Stations






























Interactive Weather Map
Tropical Storm Tracking
New forecast layout! Learn more

10-Day Weather Forecast

Advertisements
Track Severe Weather on mobile